Time;durP1;ratioP1;P1;durP2;ratioP2;P2;SDS_P1;SDS_P2;PMS_P1;PMS_P2;Temp;Humidity;BMP_temperature;BMP_pressure;BME280_temperature;BME280_humidity;BME280_pressure;Samples;Min_cycle;Max_cycle;Signal;HPM_P1;HPM_P2
2022/05/16 00:02:25;;;;;;;6.13;5.73;;;;;;;16.45;69.86;100856.44;5134502;27;20189;-69
2022/05/16 00:04:52;;;;;;;7.30;6.10;;;;;;;16.43;70.10;100845.97;5133769;27;20238;-69
2022/05/16 00:07:20;;;;;;;7.20;6.13;;;;;;;16.40;70.22;100843.50;5136426;27;20210;-69
2022/05/16 00:09:48;;;;;;;6.57;6.33;;;;;;;16.35;70.35;100850.00;5135076;27;20212;-69
2022/05/16 00:12:15;;;;;;;8.20;6.53;;;;;;;16.31;70.62;100849.38;5135355;27;20189;-69
2022/05/16 00:14:43;;;;;;;6.33;6.00;;;;;;;16.29;70.81;100847.75;5134611;27;20557;-68
2022/05/16 00:17:11;;;;;;;6.13;5.93;;;;;;;16.23;70.80;100852.50;5135146;27;20686;-70
2022/05/16 00:19:39;;;;;;;6.57;6.47;;;;;;;16.20;70.91;100849.19;5134746;27;20212;-69
2022/05/16 00:22:07;;;;;;;5.53;5.23;;;;;;;16.15;71.29;100841.56;5134975;27;20189;-69
2022/05/16 00:24:33;;;;;;;6.40;6.30;;;;;;;16.16;71.54;100843.25;5134367;27;20188;-69
2022/05/16 00:27:00;;;;;;;6.37;5.97;;;;;;;16.08;71.94;100837.63;5133451;27;20200;-69
2022/05/16 00:29:27;;;;;;;8.00;6.83;;;;;;;16.07;71.75;100830.59;5134002;27;20269;-69
2022/05/16 00:31:55;;;;;;;9.20;6.27;;;;;;;16.01;72.31;100835.44;5134689;27;20546;-69
2022/05/16 00:34:23;;;;;;;7.10;6.43;;;;;;;15.86;72.84;100834.56;5134012;27;20234;-69
2022/05/16 00:36:49;;;;;;;8.33;6.47;;;;;;;15.83;73.20;100825.06;5133915;27;20226;-69
2022/05/16 00:39:17;;;;;;;7.90;6.70;;;;;;;15.69;73.99;100820.63;5134071;27;20254;-68
2022/05/16 00:41:47;;;;;;;8.03;6.00;;;;;;;15.65;73.92;100821.78;5130069;27;20181;-68
2022/05/16 00:44:14;;;;;;;7.13;6.83;;;;;;;15.63;74.08;100821.00;5115131;28;20223;-69
2022/05/16 00:46:41;;;;;;;7.73;7.40;;;;;;;15.65;73.76;100834.13;5131361;27;20184;-69
2022/05/16 00:49:13;;;;;;;7.10;6.70;;;;;;;15.75;73.48;100829.13;5134943;27;20616;-69
2022/05/16 00:52:03;;;;;;;6.90;6.50;;;;;;;15.67;73.80;100817.25;5133458;27;20188;-68
2022/05/16 00:54:34;;;;;;;7.77;7.20;;;;;;;15.66;73.93;100815.53;5120904;27;20249;-69
2022/05/16 00:57:05;;;;;;;8.20;6.70;;;;;;;15.65;74.01;100816.50;5122837;27;20189;-69
2022/05/16 00:59:43;;;;;;;6.97;6.60;;;;;;;15.59;74.39;100813.34;5135024;27;20681;-68
2022/05/16 01:04:57;;;;;;;6.87;6.67;;;;;;;15.63;74.11;100809.59;5133625;27;20181;-69
2022/05/16 01:07:28;;;;;;;7.33;6.30;;;;;;;15.62;74.33;100811.38;5135303;27;20188;-69
2022/05/16 01:09:55;;;;;;;7.13;6.73;;;;;;;15.60;74.39;100809.75;5133660;27;20575;-69
2022/05/16 01:12:31;;;;;;;9.50;6.73;;;;;;;15.58;74.61;100806.38;5135110;27;20719;-70
2022/05/16 01:15:00;;;;;;;6.93;6.73;;;;;;;15.51;74.97;100802.41;5132925;27;20188;-68
2022/05/16 01:17:27;;;;;;;7.17;6.67;;;;;;;15.46;75.11;100804.47;5133185;27;20192;-69
2022/05/16 01:19:53;;;;;;;6.90;6.73;;;;;;;15.45;75.26;100798.34;5134153;27;20209;-69
2022/05/16 01:22:32;;;;;;;8.30;6.87;;;;;;;15.42;75.36;100798.50;5134252;27;20196;-69
2022/05/16 01:25:16;;;;;;;8.00;7.47;;;;;;;15.39;75.49;100796.06;5132868;27;20195;-69
2022/05/16 01:27:50;;;;;;;6.73;6.07;;;;;;;15.45;75.28;100784.28;5123930;27;20195;-70
2022/05/16 01:30:20;;;;;;;8.00;7.20;;;;;;;15.45;75.35;100787.78;5133426;27;20204;-69
2022/05/16 01:32:46;;;;;;;7.03;6.83;;;;;;;15.40;75.60;100785.41;5133393;27;20256;-69
2022/05/16 01:35:18;;;;;;;8.07;7.50;;;;;;;15.35;75.95;100781.34;5132149;27;20535;-69
2022/05/16 01:40:30;;;;;;;8.00;7.40;;;;;;;15.31;76.11;100791.25;5132853;27;20219;-69
2022/05/16 01:42:56;;;;;;;7.70;7.23;;;;;;;15.34;75.85;100787.56;5134853;27;20181;-69
2022/05/16 01:45:23;;;;;;;7.37;6.70;;;;;;;15.29;76.28;100787.84;5133616;27;20207;-68
2022/05/16 01:47:50;;;;;;;7.97;6.97;;;;;;;15.23;76.54;100772.41;5133796;27;20196;-69
2022/05/16 01:50:17;;;;;;;7.80;7.23;;;;;;;15.21;76.70;100776.03;5133549;27;20216;-69
2022/05/16 01:52:43;;;;;;;6.93;6.80;;;;;;;15.18;76.79;100779.72;5133684;27;20661;-69
2022/05/16 01:55:11;;;;;;;7.30;6.93;;;;;;;15.16;76.94;100780.75;5132442;27;20253;-69
2022/05/16 01:57:39;;;;;;;7.83;7.30;;;;;;;15.20;76.60;100774.34;5133792;27;20196;-69
2022/05/16 02:00:09;;;;;;;7.67;7.07;;;;;;;15.18;76.82;100773.59;5133726;27;20742;-69
2022/05/16 02:02:41;;;;;;;10.67;6.83;;;;;;;15.13;77.05;100769.44;5133810;27;20599;-69
2022/05/16 02:05:15;;;;;;;9.50;7.67;;;;;;;15.19;76.86;100768.22;5133468;27;20189;-69
2022/05/16 02:07:42;;;;;;;9.37;7.27;;;;;;;15.10;77.29;100771.41;5133908;27;20172;-69
2022/05/16 02:10:11;;;;;;;7.07;6.80;;;;;;;15.08;77.31;100768.03;5133246;27;20261;-69
2022/05/16 02:12:37;;;;;;;7.03;6.53;;;;;;;15.04;77.40;100759.44;5133343;27;20668;-69
2022/05/16 02:15:06;;;;;;;8.23;7.50;;;;;;;15.08;77.17;100760.13;5131404;27;20634;-69
2022/05/16 02:17:33;;;;;;;8.23;7.70;;;;;;;15.12;77.42;100754.56;5116902;28;20188;-69
2022/05/16 02:20:00;;;;;;;7.83;7.17;;;;;;;15.11;77.14;100755.50;5133178;27;20216;-69
2022/05/16 02:25:12;;;;;;;7.00;6.70;;;;;;;15.04;77.35;100754.16;5131451;27;20181;-68
2022/05/16 02:27:39;;;;;;;8.50;6.83;;;;;;;15.02;77.56;100744.66;5138225;27;20203;-69
2022/05/16 02:30:07;;;;;;;7.27;6.67;;;;;;;15.02;77.57;100740.22;5137544;27;20204;-69
2022/05/16 02:32:33;;;;;;;11.33;7.63;;;;;;;14.97;77.94;100738.81;5138296;27;20517;-69
2022/05/16 02:35:00;;;;;;;11.07;7.70;;;;;;;14.96;77.90;100737.09;5136194;27;20208;-69
2022/05/16 02:37:27;;;;;;;13.40;6.97;;;;;;;14.98;78.05;100729.94;5137468;27;20245;-69
2022/05/16 02:39:53;;;;;;;7.33;7.03;;;;;;;14.91;78.16;100734.72;5137088;27;20208;-68
2022/05/16 02:42:20;;;;;;;8.03;7.53;;;;;;;14.96;78.07;100729.19;5137696;27;20189;-69
2022/05/16 02:44:47;;;;;;;12.57;7.10;;;;;;;14.89;78.38;100723.44;5136903;27;20523;-69
2022/05/16 02:47:16;;;;;;;7.83;7.33;;;;;;;14.86;78.48;100721.84;5137850;27;20703;-69
2022/05/16 02:49:43;;;;;;;8.17;7.37;;;;;;;14.94;78.57;100712.63;5137831;27;20693;-69
2022/05/16 02:52:09;;;;;;;7.27;7.00;;;;;;;14.93;78.15;100709.16;5136002;27;20742;-69
2022/05/16 02:54:43;;;;;;;7.33;7.00;;;;;;;14.89;78.33;100706.78;5138102;27;20188;-69
2022/05/16 02:57:09;;;;;;;7.20;6.87;;;;;;;14.85;78.34;100704.28;5135139;27;20724;-69
2022/05/16 02:59:37;;;;;;;13.83;6.87;;;;;;;14.82;78.90;100707.13;5136687;27;20212;-69
2022/05/16 03:02:06;;;;;;;6.77;6.47;;;;;;;14.80;78.87;100700.25;5136895;27;20195;-69
2022/05/16 03:04:34;;;;;;;7.67;7.20;;;;;;;14.85;78.65;100706.94;5136997;27;20562;-69
2022/05/16 03:07:01;;;;;;;7.77;7.13;;;;;;;14.83;78.90;100708.81;5134233;27;20188;-69
2022/05/16 03:09:28;;;;;;;8.07;7.53;;;;;;;14.81;78.80;100700.16;5136703;27;20568;-69
2022/05/16 03:11:55;;;;;;;8.47;6.93;;;;;;;14.76;79.08;100704.84;5136917;27;20196;-69
2022/05/16 03:14:22;;;;;;;9.20;7.23;;;;;;;14.79;79.02;100702.06;5136400;27;20208;-69
2022/05/16 03:16:49;;;;;;;7.80;7.17;;;;;;;14.78;79.12;100702.13;5133982;27;20253;-67
2022/05/16 03:19:15;;;;;;;8.80;6.77;;;;;;;14.78;78.99;100695.06;5136062;27;20252;-69
2022/05/16 03:21:42;;;;;;;8.50;7.80;;;;;;;14.78;79.05;100702.13;5136605;27;20658;-68
2022/05/16 03:24:09;;;;;;;7.77;7.07;;;;;;;14.74;79.21;100695.34;5136082;27;20199;-69
2022/05/16 03:26:37;;;;;;;7.40;6.60;;;;;;;14.72;79.12;100695.44;5135923;27;20241;-69
2022/05/16 03:29:06;;;;;;;7.60;7.10;;;;;;;14.71;79.33;100692.88;5136939;27;20724;-69
2022/05/16 03:31:34;;;;;;;13.70;7.43;;;;;;;14.71;79.23;100700.78;5134960;27;20188;-68
2022/05/16 03:34:01;;;;;;;7.67;7.30;;;;;;;14.72;79.29;100698.09;5135767;27;20208;-68
2022/05/16 03:36:27;;;;;;;7.87;7.07;;;;;;;14.71;79.18;100700.78;5134694;27;20226;-68
2022/05/16 03:41:38;;;;;;;7.13;6.67;;;;;;;14.69;79.37;100700.03;5136225;27;20203;-68
2022/05/16 03:44:05;;;;;;;7.43;6.97;;;;;;;14.67;79.32;100702.75;5136272;27;20251;-68
2022/05/16 03:46:31;;;;;;;7.57;6.83;;;;;;;14.67;79.52;100704.56;5135642;27;20571;-68
2022/05/16 03:48:58;;;;;;;9.13;6.33;;;;;;;14.68;79.44;100706.25;5136839;27;20657;-68
2022/05/16 03:51:25;;;;;;;7.33;6.83;;;;;;;14.71;79.25;100709.53;5133914;27;20192;-68
2022/05/16 03:53:51;;;;;;;13.17;7.53;;;;;;;14.70;79.70;100704.34;5133814;27;20325;-68
2022/05/16 03:56:26;;;;;;;6.57;6.27;;;;;;;14.70;80.06;100704.34;5134746;27;20607;-68
2022/05/16 03:58:54;;;;;;;7.03;6.77;;;;;;;14.69;79.84;100707.94;5133642;27;20220;-68
2022/05/16 04:01:21;;;;;;;10.40;7.63;;;;;;;14.67;79.63;100699.28;5133402;27;20192;-68
2022/05/16 04:03:48;;;;;;;7.23;6.83;;;;;;;14.64;79.86;100702.94;5135992;27;20239;-68
2022/05/16 04:06:15;;;;;;;7.30;6.80;;;;;;;14.61;79.85;100697.84;5134369;27;20185;-67
2022/05/16 04:08:43;;;;;;;6.93;6.63;;;;;;;14.59;80.00;100692.69;5121916;27;20216;-68
2022/05/16 04:11:14;;;;;;;7.07;6.77;;;;;;;14.62;79.93;100696.06;5135655;27;20672;-69
2022/05/16 04:13:42;;;;;;;7.77;7.20;;;;;;;14.55;80.06;100691.13;5136286;27;20583;-69
2022/05/16 04:16:08;;;;;;;7.33;6.70;;;;;;;14.52;80.42;100691.34;5133173;27;20188;-69
2022/05/16 04:18:36;;;;;;;8.03;7.33;;;;;;;14.50;80.34;100685.31;5134256;27;20209;-68
2022/05/16 04:21:05;;;;;;;7.57;7.03;;;;;;;14.54;80.48;100694.72;5135085;27;20253;-69
2022/05/16 04:23:32;;;;;;;6.80;6.30;;;;;;;14.55;80.47;100704.31;5134228;27;20210;-68
2022/05/16 04:25:59;;;;;;;7.23;6.70;;;;;;;14.57;80.68;100693.69;5135061;27;20233;-69
2022/05/16 04:28:26;;;;;;;7.40;7.10;;;;;;;14.51;80.76;100684.38;5134420;27;20193;-67
2022/05/16 04:30:52;;;;;;;7.87;7.10;;;;;;;14.53;80.70;100693.03;5135554;27;20189;-69
2022/05/16 04:33:19;;;;;;;9.20;6.03;;;;;;;14.56;80.64;100689.34;5136039;27;20233;-69
2022/05/16 04:35:46;;;;;;;7.67;6.90;;;;;;;14.56;80.86;100692.84;5135894;27;20189;-68
2022/05/16 04:38:12;;;;;;;7.73;7.47;;;;;;;14.57;81.11;100693.69;5136038;27;20192;-68
2022/05/16 04:42:40;;;;;;;7.67;7.27;;;;;;;14.61;81.05;100692.56;5135611;27;20234;-68
2022/05/16 04:43:26;;;;;;;7.67;6.77;;;;;;;14.57;80.97;100689.28;5135932;27;20268;-69
2022/05/16 04:45:52;;;;;;;8.27;7.50;;;;;;;14.57;81.33;100694.56;5135677;27;20666;-69
2022/05/16 04:48:19;;;;;;;13.73;7.93;;;;;;;14.62;81.23;100691.63;5135108;27;20189;-68
2022/05/16 04:50:45;;;;;;;9.37;8.30;;;;;;;14.70;81.10;100691.19;5135555;27;20195;-68
2022/05/16 04:53:12;;;;;;;7.90;7.10;;;;;;;14.71;81.45;100690.25;5135854;27;20177;-68
2022/05/16 04:55:39;;;;;;;16.67;7.80;;;;;;;14.74;81.51;100695.34;5135939;27;20215;-68
2022/05/16 04:58:05;;;;;;;9.03;8.33;;;;;;;14.82;81.61;100693.09;5135245;27;20245;-69
2022/05/16 05:00:32;;;;;;;10.57;8.00;;;;;;;14.88;81.32;100694.53;5134412;27;20619;-69
2022/05/16 05:02:58;;;;;;;11.57;7.87;;;;;;;14.92;81.68;100701.31;5135042;27;20193;-69
2022/05/16 05:05:25;;;;;;;8.13;7.37;;;;;;;15.03;80.75;100691.81;5135172;27;20184;-69
2022/05/16 05:07:51;;;;;;;8.83;8.10;;;;;;;15.10;80.71;100689.66;5135071;27;20184;-69
2022/05/16 05:15:58;;;;;;;10.27;8.53;;;;;;;15.21;79.54;100708.31;5134786;27;20196;-70
2022/05/16 05:18:25;;;;;;;9.27;8.47;;;;;;;15.24;79.70;100705.50;5135340;27;20180;-69
2022/05/16 05:20:51;;;;;;;11.20;8.40;;;;;;;15.33;79.30;100701.44;5134893;27;20563;-69
2022/05/16 05:23:18;;;;;;;9.03;7.57;;;;;;;15.34;79.39;100697.88;5134935;27;20593;-69
2022/05/16 05:25:44;;;;;;;7.67;7.23;;;;;;;15.41;79.28;100697.38;5134688;27;20193;-69
2022/05/16 05:28:11;;;;;;;10.63;8.47;;;;;;;15.56;78.71;100690.31;5134828;27;20169;-70
2022/05/16 05:30:37;;;;;;;9.07;8.27;;;;;;;15.65;78.67;100700.34;5134946;27;20240;-70
2022/05/16 05:33:04;;;;;;;7.93;7.60;;;;;;;15.72;79.22;100698.16;5134607;27;20666;-69
2022/05/16 05:35:30;;;;;;;12.60;7.70;;;;;;;15.82;78.57;100695.78;5134524;27;20261;-69
2022/05/16 05:37:57;;;;;;;7.33;6.80;;;;;;;15.90;78.12;100706.69;5134739;27;20187;-69
2022/05/16 05:40:24;;;;;;;7.50;6.87;;;;;;;16.03;78.31;100718.19;5134810;27;20613;-69
2022/05/16 05:42:50;;;;;;;7.63;6.97;;;;;;;16.12;77.82;100714.94;5134634;27;20192;-69
2022/05/16 05:45:17;;;;;;;9.00;7.53;;;;;;;16.16;77.72;100713.81;5134459;27;20217;-69
2022/05/16 05:47:45;;;;;;;9.40;7.20;;;;;;;16.23;77.41;100717.75;5133241;27;20242;-69
2022/05/16 05:50:12;;;;;;;7.60;7.30;;;;;;;16.31;77.07;100716.41;5132275;27;20678;-68
2022/05/16 05:52:38;;;;;;;8.13;7.40;;;;;;;16.33;76.98;100712.72;5130537;27;20254;-68
2022/05/16 05:55:05;;;;;;;7.70;7.37;;;;;;;16.35;76.83;100713.44;5120944;27;20200;-70
2022/05/16 05:57:32;;;;;;;7.17;6.67;;;;;;;16.40;77.37;100710.50;5126237;27;20261;-68
2022/05/16 05:59:59;;;;;;;7.40;7.07;;;;;;;16.41;77.42;100714.84;5130106;27;20239;-68
2022/05/16 06:02:25;;;;;;;6.80;6.50;;;;;;;16.42;77.34;100717.38;5134503;27;20184;-69
2022/05/16 06:04:52;;;;;;;7.57;6.50;;;;;;;16.45;77.72;100705.78;5133162;27;20669;-69
2022/05/16 06:07:18;;;;;;;10.73;8.70;;;;;;;16.57;77.55;100706.75;5133995;27;20198;-69
2022/05/16 06:09:45;;;;;;;10.17;7.23;;;;;;;16.67;77.44;100706.03;5133050;27;20215;-69
2022/05/16 06:12:12;;;;;;;7.17;6.37;;;;;;;16.80;77.51;100715.84;5134532;28;20220;-69
2022/05/16 06:14:38;;;;;;;8.47;7.13;;;;;;;16.96;76.15;100705.91;5134642;28;20204;-69
2022/05/16 06:17:05;;;;;;;10.00;7.67;;;;;;;17.03;75.63;100704.53;5134407;28;20189;-69
2022/05/16 06:19:32;;;;;;;13.53;7.50;;;;;;;17.02;75.36;100705.50;5134617;28;20200;-69
2022/05/16 06:21:58;;;;;;;7.60;7.20;;;;;;;17.06;75.55;100701.66;5134159;28;20176;-69
2022/05/16 06:27:09;;;;;;;11.60;6.70;;;;;;;17.09;75.54;100701.47;5134040;28;20688;-69
2022/05/16 06:29:36;;;;;;;6.27;5.70;;;;;;;17.17;75.98;100706.25;5133980;28;20208;-69
2022/05/16 06:32:03;;;;;;;8.93;7.47;;;;;;;17.20;75.92;100706.88;5134044;28;20188;-70
2022/05/16 06:34:29;;;;;;;15.23;6.23;;;;;;;17.24;75.29;100713.66;5134250;28;20216;-70
2022/05/16 06:36:56;;;;;;;8.87;6.73;;;;;;;17.32;75.15;100713.97;5133987;28;20181;-70
2022/05/16 06:39:22;;;;;;;7.43;6.90;;;;;;;17.40;75.44;100718.72;5133948;28;20197;-69
2022/05/16 06:41:49;;;;;;;7.50;6.93;;;;;;;17.52;75.24;100714.38;5134283;28;20233;-69
2022/05/16 06:44:16;;;;;;;7.80;7.03;;;;;;;17.62;74.85;100712.75;5133924;28;20177;-69
2022/05/16 06:46:44;;;;;;;13.07;7.33;;;;;;;17.77;74.04;100714.34;5133928;28;20195;-69
2022/05/16 06:49:11;;;;;;;8.97;7.77;;;;;;;17.85;73.80;100714.63;5134062;28;20212;-69
2022/05/16 06:51:38;;;;;;;7.13;6.47;;;;;;;17.92;73.30;100714.19;5133884;28;20262;-69
2022/05/16 06:54:05;;;;;;;7.53;6.90;;;;;;;18.01;73.56;100717.06;5133754;28;20633;-69
2022/05/16 06:56:32;;;;;;;7.40;6.73;;;;;;;18.06;74.18;100724.66;5133765;28;20185;-70
2022/05/16 06:58:58;;;;;;;7.83;6.70;;;;;;;18.15;74.04;100718.72;5134141;28;20253;-70
2022/05/16 07:01:25;;;;;;;14.60;7.03;;;;;;;18.17;73.50;100713.28;5134388;28;20218;-70
2022/05/16 07:03:52;;;;;;;8.30;6.13;;;;;;;18.24;73.71;100728.63;5134019;28;20218;-70
2022/05/16 07:06:18;;;;;;;6.63;6.27;;;;;;;18.28;73.08;100723.94;5134037;28;20585;-70
2022/05/16 07:08:45;;;;;;;6.37;6.07;;;;;;;18.28;73.08;100726.59;5133597;28;20214;-69
2022/05/16 07:11:11;;;;;;;6.63;6.20;;;;;;;18.33;72.71;100740.34;5134015;27;20177;-69
2022/05/16 07:13:38;;;;;;;6.23;5.93;;;;;;;18.38;72.29;100733.75;5137732;27;20192;-69
2022/05/16 07:16:04;;;;;;;8.63;7.83;;;;;;;18.48;71.54;100741.88;5137940;27;20193;-69
2022/05/16 07:18:31;;;;;;;7.67;7.13;;;;;;;18.46;71.82;100746.47;5138161;27;20240;-69
2022/05/16 07:20:59;;;;;;;14.87;7.83;;;;;;;18.50;72.41;100760.31;5137345;27;20177;-69
2022/05/16 07:23:26;;;;;;;8.03;7.53;;;;;;;18.51;72.15;100762.03;5137825;27;20203;-70
2022/05/16 07:28:39;;;;;;;8.80;8.20;;;;;;;18.58;71.37;100779.19;5137674;27;20241;-69
2022/05/16 07:31:05;;;;;;;12.37;7.73;;;;;;;18.56;70.93;100776.63;5137396;27;20588;-69
2022/05/16 07:33:34;;;;;;;21.13;7.63;;;;;;;18.58;71.26;100788.00;5137106;27;20237;-69
2022/05/16 07:36:00;;;;;;;8.10;7.30;;;;;;;18.59;71.19;100791.47;5137574;27;20674;-69
2022/05/16 07:38:27;;;;;;;9.30;7.30;;;;;;;18.62;71.81;100783.28;5136984;27;20195;-69
2022/05/16 07:40:55;;;;;;;16.47;7.43;;;;;;;18.66;72.03;100787.44;5137490;27;20666;-69
2022/05/16 07:43:24;;;;;;;7.87;7.27;;;;;;;18.69;72.02;100785.41;5137118;27;20245;-69
2022/05/16 07:45:51;;;;;;;9.47;7.17;;;;;;;18.77;72.61;100797.25;5136892;27;20766;-69
2022/05/16 07:48:18;;;;;;;18.37;8.30;;;;;;;18.83;73.30;100799.44;5136729;27;20673;-69
2022/05/16 07:50:45;;;;;;;10.30;7.70;;;;;;;18.88;73.26;100802.63;5137031;27;20180;-69
2022/05/16 07:53:13;;;;;;;9.07;8.10;;;;;;;18.98;73.97;100812.41;5136950;27;20199;-69
2022/05/16 07:55:43;;;;;;;13.27;8.73;;;;;;;19.03;74.83;100811.25;5136919;27;20208;-69
2022/05/16 07:58:10;;;;;;;9.90;7.13;;;;;;;19.03;74.15;100814.75;5137200;27;20309;-69
2022/05/16 08:00:37;;;;;;;14.10;8.33;;;;;;;19.11;72.37;100814.16;5136614;27;20188;-69
2022/05/16 08:03:04;;;;;;;9.93;7.10;;;;;;;19.12;71.87;100819.34;5136579;27;20177;-69
2022/05/16 08:05:34;;;;;;;13.07;6.93;;;;;;;19.15;70.62;100810.31;5137113;27;20211;-69
2022/05/16 08:10:46;;;;;;;11.33;7.73;;;;;;;19.34;70.90;100813.25;5136952;27;20627;-69
2022/05/16 08:13:12;;;;;;;7.13;6.50;;;;;;;19.40;70.44;100809.28;5136311;27;20235;-69
2022/05/16 08:15:41;;;;;;;9.13;7.03;;;;;;;19.46;71.62;100814.13;5136285;27;20194;-70
2022/05/16 08:18:10;;;;;;;7.03;6.37;;;;;;;19.48;71.56;100820.16;5136358;27;20184;-70
2022/05/16 08:20:39;;;;;;;7.90;7.07;;;;;;;19.57;72.47;100821.25;5136469;27;20709;-69
2022/05/16 08:23:05;;;;;;;11.90;6.33;;;;;;;19.61;70.33;100817.44;5135233;27;20272;-69
2022/05/16 08:25:32;;;;;;;7.30;6.63;;;;;;;19.65;70.54;100816.25;5136833;27;20557;-70
2022/05/16 08:27:59;;;;;;;8.50;6.73;;;;;;;19.69;70.19;100817.69;5136330;27;20623;-70
2022/05/16 08:30:25;;;;;;;10.37;7.47;;;;;;;19.74;71.21;100807.56;5135969;27;20223;-69
2022/05/16 08:32:52;;;;;;;7.23;6.60;;;;;;;19.84;72.85;100811.16;5135967;27;20188;-69
2022/05/16 08:35:19;;;;;;;7.37;6.47;;;;;;;19.86;72.22;100811.91;5136450;27;20200;-69
2022/05/16 08:40:54;;;;;;;6.87;6.20;;;;;;;19.93;70.25;100810.47;5136398;27;20177;-69
2022/05/16 08:44:03;;;;;;;6.67;6.17;;;;;;;19.94;69.83;100813.97;5136337;27;20536;-69
2022/05/16 08:46:44;;;;;;;6.33;5.90;;;;;;;19.98;70.06;100816.25;5087379;27;20212;-69
2022/05/16 08:49:19;;;;;;;11.27;6.13;;;;;;;20.00;69.07;100819.66;5135732;27;20208;-69
2022/05/16 08:51:54;;;;;;;10.90;6.33;;;;;;;19.98;71.12;100808.28;5135821;27;20259;-69
2022/05/16 08:54:29;;;;;;;6.23;5.97;;;;;;;19.99;75.17;100807.28;5135794;27;20225;-69
2022/05/16 08:57:00;;;;;;;9.43;6.37;;;;;;;19.98;76.74;100807.44;5135693;27;20172;-69
2022/05/16 08:59:29;;;;;;;7.27;6.53;;;;;;;19.94;77.57;100803.34;5135646;27;20210;-69
2022/05/16 09:02:10;;;;;;;6.47;6.10;;;;;;;19.93;77.79;100804.28;5135362;27;20673;-69
2022/05/16 09:05:12;;;;;;;11.33;6.37;;;;;;;20.00;77.11;100802.81;5135645;27;20233;-69
2022/05/16 09:07:47;;;;;;;13.77;5.67;;;;;;;19.90;69.40;100816.00;5135619;27;20188;-69
2022/05/16 09:10:21;;;;;;;6.37;5.70;;;;;;;19.92;69.19;100816.72;5135205;27;20216;-69
2022/05/16 09:13:07;;;;;;;13.97;5.30;;;;;;;19.96;70.33;100815.53;5135190;27;20235;-70
2022/05/16 09:15:56;;;;;;;9.17;5.83;;;;;;;19.92;69.94;100816.72;5135607;27;20670;-70
2022/05/16 09:18:40;;;;;;;18.53;6.20;;;;;;;19.92;69.35;100822.03;5135315;27;20207;-69
2022/05/16 09:21:22;;;;;;;5.17;4.67;;;;;;;19.90;69.10;100816.00;5135376;27;20589;-70
2022/05/16 09:24:04;;;;;;;4.57;4.53;;;;;;;19.94;68.90;100822.78;5101255;27;20184;-69
2022/05/16 09:26:35;;;;;;;5.20;5.00;;;;;;;19.96;69.53;100823.50;5135272;27;20233;-69
2022/05/16 09:29:14;;;;;;;4.70;4.60;;;;;;;19.97;70.50;100821.69;5117541;27;20546;-69
2022/05/16 09:31:44;;;;;;;17.33;5.20;;;;;;;19.96;69.02;100836.78;5135412;27;20173;-70
2022/05/16 09:34:12;;;;;;;15.03;4.97;;;;;;;19.94;68.67;100836.06;5134838;27;20627;-70
2022/05/16 09:36:42;;;;;;;5.70;5.50;;;;;;;19.96;68.78;100846.56;5134960;27;20257;-69
2022/05/16 09:39:10;;;;;;;5.50;5.17;;;;;;;19.94;68.56;100857.34;5135042;27;20254;-69
2022/05/16 09:41:58;;;;;;;5.90;5.53;;;;;;;19.96;69.14;100851.91;5134602;27;20203;-69
2022/05/16 09:44:29;;;;;;;4.73;4.63;;;;;;;20.01;69.63;100860.38;5134884;27;20172;-69
2022/05/16 09:47:22;;;;;;;4.97;4.70;;;;;;;20.06;69.19;100856.34;5134833;27;20676;-69
2022/05/16 09:50:20;;;;;;;4.77;4.37;;;;;;;20.02;69.02;100856.72;5134769;27;20770;-69
2022/05/16 09:53:02;;;;;;;4.90;4.67;;;;;;;20.09;70.86;100855.28;5115315;27;20286;-69
2022/05/16 09:55:53;;;;;;;5.47;5.07;;;;;;;20.19;71.82;100850.06;5134669;27;20200;-69
2022/05/16 09:58:47;;;;;;;4.53;4.43;;;;;;;20.35;70.94;100853.19;5122273;27;20208;-69
2022/05/16 10:01:38;;;;;;;5.73;5.37;;;;;;;20.51;70.01;100863.50;5134603;27;20548;-69
2022/05/16 10:04:14;;;;;;;4.60;4.23;;;;;;;20.67;70.03;100861.28;5134324;27;20213;-70
2022/05/16 10:07:00;;;;;;;5.83;5.73;;;;;;;20.86;69.47;100856.16;5134310;27;20192;-70
2022/05/16 10:09:37;;;;;;;5.57;5.10;;;;;;;21.13;68.03;100866.31;5133356;27;20208;-69
2022/05/16 10:12:08;;;;;;;4.87;4.77;;;;;;;21.30;66.82;100859.63;5134552;27;20255;-69
2022/05/16 10:14:37;;;;;;;5.17;4.60;;;;;;;21.42;66.78;100857.72;5134595;28;20583;-70
2022/05/16 10:17:05;;;;;;;9.10;4.57;;;;;;;21.46;66.01;100843.19;5134083;28;20646;-70
2022/05/16 10:19:32;;;;;;;4.63;4.53;;;;;;;21.42;66.98;100847.91;5133955;28;20204;-70
2022/05/16 10:22:03;;;;;;;8.07;4.90;;;;;;;21.49;66.76;100845.56;5134404;28;20559;-70
2022/05/16 10:24:34;;;;;;;4.73;4.53;;;;;;;21.53;66.46;100851.50;5134181;28;20245;-70
2022/05/16 10:27:09;;;;;;;4.73;4.63;;;;;;;21.57;67.52;100845.75;5134375;28;20188;-70
2022/05/16 10:29:45;;;;;;;4.93;4.37;;;;;;;21.60;67.04;100844.69;5133249;28;20208;-69
2022/05/16 10:35:11;;;;;;;5.30;4.50;;;;;;;21.70;67.80;100840.22;5134236;28;20225;-69
2022/05/16 10:37:42;;;;;;;4.87;4.77;;;;;;;21.76;67.35;100845.03;5133818;27;20168;-69
2022/05/16 10:40:33;;;;;;;6.90;4.53;;;;;;;21.79;64.50;100852.78;5134280;27;20200;-70
2022/05/16 10:43:43;;;;;;;4.50;4.20;;;;;;;21.87;64.83;100852.97;5134061;27;20176;-70
2022/05/16 10:46:24;;;;;;;4.50;4.10;;;;;;;21.94;65.33;100858.63;5113211;27;20196;-70
2022/05/16 10:49:09;;;;;;;5.33;5.10;;;;;;;22.01;64.24;100857.09;5138267;27;20204;-69
2022/05/16 10:51:53;;;;;;;5.93;4.40;;;;;;;21.99;64.60;100859.88;5138304;27;20229;-69
2022/05/16 10:54:24;;;;;;;5.40;4.87;;;;;;;22.10;63.78;100859.00;5138181;27;20229;-69
2022/05/16 10:57:13;;;;;;;11.87;4.17;;;;;;;22.20;63.60;100859.88;5138326;27;20238;-69
2022/05/16 10:59:54;;;;;;;6.80;4.13;;;;;;;22.27;62.71;100856.66;5136460;27;20212;-69
2022/05/16 11:02:40;;;;;;;3.90;3.80;;;;;;;22.37;63.94;100860.22;5138144;27;20206;-69
2022/05/16 11:05:39;;;;;;;10.23;4.43;;;;;;;22.50;63.97;100856.31;5138012;27;20627;-70
2022/05/16 11:08:29;;;;;;;5.60;5.20;;;;;;;22.47;63.14;100858.41;5138016;27;20173;-70
2022/05/16 11:11:24;;;;;;;4.40;4.30;;;;;;;22.57;63.29;100858.41;5137649;27;20173;-70
2022/05/16 11:14:18;;;;;;;4.30;4.20;;;;;;;22.64;63.75;100868.41;5137853;27;20515;-70
2022/05/16 11:16:50;;;;;;;4.60;4.23;;;;;;;22.82;61.77;100859.75;5135626;27;20192;-69
2022/05/16 11:20:07;;;;;;;4.77;4.37;;;;;;;22.75;61.07;100860.28;5130742;27;20204;-68
2022/05/16 11:22:39;;;;;;;5.87;5.40;;;;;;;22.91;60.75;100864.28;5075693;27;20249;-69
2022/05/16 11:25:31;;;;;;;5.07;4.97;;;;;;;22.91;59.54;100853.59;5132005;27;20189;-69
2022/05/16 11:28:33;;;;;;;5.40;5.10;;;;;;;22.96;60.31;100859.38;5122932;27;20210;-69
2022/05/16 11:31:05;;;;;;;5.13;4.80;;;;;;;23.14;59.27;100852.31;5134553;27;20184;-69
2022/05/16 11:33:40;;;;;;;3.80;3.77;;;;;;;23.06;61.58;100852.19;5129343;27;20559;-69
2022/05/16 11:36:27;;;;;;;4.70;4.60;;;;;;;23.15;58.32;100850.53;5126315;27;20188;-69
2022/05/16 11:39:18;;;;;;;5.70;3.63;;;;;;;23.38;58.37;100853.72;5131039;27;20219;-70
2022/05/16 11:42:02;;;;;;;4.93;4.50;;;;;;;23.48;57.13;100846.53;5136175;27;20198;-69
2022/05/16 11:53:17;;;;;;;4.53;4.23;;;;;;;23.23;60.67;100823.94;5152383;27;20521;-70
2022/05/16 12:01:35;;;;;;;4.33;4.33;;;;;;;23.62;61.05;100824.72;5130203;28;20184;-70
2022/05/16 12:04:21;;;;;;;5.27;4.80;;;;;;;23.94;59.61;100839.56;5130824;28;20165;-70
2022/05/16 12:07:02;;;;;;;4.63;3.93;;;;;;;23.94;56.79;100829.69;5130427;28;20224;-70
2022/05/16 12:09:46;;;;;;;4.03;3.70;;;;;;;23.97;57.80;100839.25;5128179;27;20619;-70
2022/05/16 12:12:38;;;;;;;4.83;4.63;;;;;;;24.13;57.45;100832.25;5128381;28;20561;-70
2022/05/16 12:15:11;;;;;;;5.23;5.00;;;;;;;24.24;57.19;100828.56;5130613;28;20189;-71
2022/05/16 12:17:50;;;;;;;5.10;4.67;;;;;;;24.43;57.87;100824.94;5131501;28;20573;-71
2022/05/16 12:20:32;;;;;;;4.73;4.63;;;;;;;24.54;58.46;100823.91;5131183;27;20208;-72
2022/05/16 12:22:58;;;;;;;5.17;4.33;;;;;;;24.51;56.78;100817.03;5131303;28;20169;-72
2022/05/16 12:25:35;;;;;;;4.97;4.80;;;;;;;24.61;58.06;100814.28;5130963;28;20237;-72
2022/05/16 12:28:10;;;;;;;4.53;4.33;;;;;;;24.56;56.24;100811.19;5130962;28;20185;-72
2022/05/16 12:30:54;;;;;;;5.17;4.87;;;;;;;24.49;56.32;100812.78;5130915;28;20181;-71